Time;durP1;ratioP1;P1;durP2;ratioP2;P2;SDS_P1;SDS_P2;PMS_P1;PMS_P2;Temp;Humidity;BMP_temperature;BMP_pressure;BME280_temperature;BME280_humidity;BME280_pressure;Samples;Min_cycle;Max_cycle;Signal;HPM_P1;HPM_P2
2022/11/26 00:00:51;;;;;;;13.00;2.83;;;6.60;99.90;;;;;;4995827;28;20056;-87
2022/11/26 00:03:18;;;;;;;10.10;2.72;;;6.60;99.90;;;;;;5011362;28;20042;-87
2022/11/26 00:05:47;;;;;;;9.60;2.90;;;6.60;99.90;;;;;;4994631;28;20038;-87
2022/11/26 00:08:35;;;;;;;9.40;2.92;;;6.60;99.90;;;;;;4991765;28;20110;-88
2022/11/26 00:11:00;;;;;;;;;;;6.60;99.90;;;;;;5011203;28;20054;-87
2022/11/26 00:13:29;;;;;;;10.07;2.92;;;6.60;99.90;;;;;;5012760;28;19918;-87
2022/11/26 00:15:55;;;;;;;14.70;3.10;;;6.60;99.90;;;;;;4992563;28;20494;-88
2022/11/26 00:18:27;;;;;;;11.40;2.58;;;6.60;99.90;;;;;;5011071;28;20068;-87
2022/11/26 00:20:55;;;;;;;11.23;2.50;;;6.60;99.90;;;;;;5008483;28;20038;-88
2022/11/26 00:23:26;;;;;;;14.45;3.17;;;6.50;99.90;;;;;;5007594;28;20041;-87
2022/11/26 00:25:57;;;;;;;7.40;2.22;;;6.60;99.90;;;;;;5010730;28;20415;-87
2022/11/26 00:28:35;;;;;;;7.82;2.67;;;6.50;99.90;;;;;;5012732;28;20073;-88
2022/11/26 00:31:09;;;;;;;9.85;3.15;;;6.50;99.90;;;;;;5011763;28;20065;-88
2022/11/26 00:33:35;;;;;;;12.70;2.88;;;6.60;99.90;;;;;;5011446;28;20111;-87
2022/11/26 00:36:11;;;;;;;7.27;2.53;;;6.50;99.90;;;;;;4995090;28;20491;-89
2022/11/26 00:38:37;;;;;;;18.25;3.08;;;6.50;99.90;;;;;;5010850;28;20053;-87
2022/11/26 00:41:15;;;;;;;12.27;2.90;;;6.50;99.90;;;;;;4988936;28;20035;-87
2022/11/26 00:43:41;;;;;;;8.02;2.42;;;6.50;99.90;;;;;;4993400;28;20038;-87
2022/11/26 00:46:14;;;;;;;6.90;2.50;;;6.50;99.90;;;;;;5010816;28;20052;-88
2022/11/26 00:48:42;;;;;;;12.93;2.90;;;6.40;99.90;;;;;;5008884;28;20105;-88
2022/11/26 00:51:14;;;;;;;8.93;2.42;;;6.40;99.90;;;;;;5009635;28;20038;-87
2022/11/26 00:53:40;;;;;;;9.52;2.88;;;6.40;99.90;;;;;;5010934;28;20051;-87
2022/11/26 00:56:13;;;;;;;12.55;3.42;;;6.40;99.90;;;;;;5010971;28;20049;-88
2022/11/26 00:58:41;;;;;;;12.57;2.83;;;6.40;99.90;;;;;;5006281;28;20610;-88
2022/11/26 01:01:10;;;;;;;11.63;3.47;;;6.40;99.90;;;;;;5012241;28;20607;-88
2022/11/26 01:03:35;;;;;;;10.90;3.05;;;6.40;99.90;;;;;;5003280;28;20046;-88
2022/11/26 01:06:01;;;;;;;15.97;2.43;;;6.40;99.90;;;;;;5010779;28;20073;-88
2022/11/26 01:08:31;;;;;;;14.60;3.10;;;6.40;99.90;;;;;;5007494;28;20505;-88
2022/11/26 01:11:01;;;;;;;6.40;1.90;;;6.40;99.90;;;;;;5011225;28;20042;-88
2022/11/26 01:13:27;;;;;;;12.10;2.85;;;6.40;99.90;;;;;;5007884;28;20621;-88
2022/11/26 01:15:55;;;;;;;19.58;2.70;;;6.40;99.90;;;;;;5009952;28;20542;-88
2022/11/26 01:18:22;;;;;;;7.47;3.30;;;6.40;99.90;;;;;;4990123;28;20034;-87
2022/11/26 01:20:53;;;;;;;6.38;2.28;;;6.40;99.90;;;;;;4988985;28;20045;-88
2022/11/26 01:23:20;;;;;;;11.13;2.47;;;6.40;99.90;;;;;;5005761;28;20038;-87
2022/11/26 01:25:46;;;;;;;9.32;2.75;;;6.40;99.90;;;;;;4991819;28;20042;-88
2022/11/26 01:28:18;;;;;;;10.25;1.95;;;6.40;99.90;;;;;;5009390;28;20040;-87
2022/11/26 01:30:44;;;;;;;7.45;2.08;;;6.40;99.90;;;;;;5007805;28;20045;-87
2022/11/26 01:33:16;;;;;;;6.30;2.17;;;6.40;99.90;;;;;;5009319;28;20121;-87
2022/11/26 01:35:41;;;;;;;5.65;1.92;;;6.30;99.90;;;;;;4992492;28;20096;-87
2022/11/26 01:38:11;;;;;;;4.30;1.57;;;6.40;99.90;;;;;;4993297;28;20041;-87
2022/11/26 01:40:40;;;;;;;11.38;2.08;;;6.40;99.90;;;;;;4999687;28;20046;-87
2022/11/26 01:43:35;;;;;;;8.52;2.42;;;6.40;99.90;;;;;;5005247;28;20057;-87
2022/11/26 01:46:01;;;;;;;5.50;1.95;;;6.40;99.90;;;;;;5002805;28;20466;-87
2022/11/26 01:48:32;;;;;;;7.00;1.97;;;6.40;99.90;;;;;;4994087;28;20169;-88
2022/11/26 01:51:06;;;;;;;8.43;2.30;;;6.40;99.90;;;;;;5006786;28;20038;-87
2022/11/26 01:53:43;;;;;;;8.32;2.67;;;6.40;99.90;;;;;;5009169;28;20095;-87
2022/11/26 01:56:30;;;;;;;9.82;2.58;;;6.40;99.90;;;;;;5012074;28;20048;-88
2022/11/26 01:59:05;;;;;;;14.20;2.40;;;6.40;99.90;;;;;;4986919;28;20069;-87
2022/11/26 02:01:32;;;;;;;5.60;2.38;;;6.40;99.90;;;;;;4991464;28;20065;-87
2022/11/26 02:03:58;;;;;;;15.27;2.67;;;6.40;99.90;;;;;;5006645;28;20041;-87
2022/11/26 02:06:30;;;;;;;14.17;2.60;;;6.40;99.90;;;;;;5009652;28;20049;-87
2022/11/26 02:08:57;;;;;;;10.25;2.72;;;6.40;99.90;;;;;;4986077;28;20041;-88
2022/11/26 02:11:23;;;;;;;7.18;2.03;;;6.40;99.90;;;;;;5009428;28;20038;-87
2022/11/26 02:13:53;;;;;;;7.10;3.00;;;6.30;99.90;;;;;;5002094;28;20053;-87
2022/11/26 02:16:33;;;;;;;7.25;2.30;;;6.40;99.90;;;;;;5009926;28;20494;-87
2022/11/26 02:19:36;;;;;;;6.70;1.80;;;6.30;99.90;;;;;;5008414;28;20038;-87
2022/11/26 02:22:15;;;;;;;7.88;2.35;;;6.30;99.90;;;;;;4995514;28;20042;-88
2022/11/26 02:24:44;;;;;;;13.20;2.45;;;6.30;99.90;;;;;;5003652;28;20129;-87
2022/11/26 02:27:33;;;;;;;10.55;2.78;;;6.30;99.90;;;;;;5003969;28;20033;-87
2022/11/26 02:30:14;;;;;;;6.38;2.00;;;6.30;99.90;;;;;;4962564;28;20046;-87
2022/11/26 02:32:56;;;;;;;8.93;2.35;;;6.30;99.90;;;;;;5009755;28;20042;-88
2022/11/26 02:35:37;;;;;;;4.85;2.40;;;6.30;99.90;;;;;;4997200;28;20502;-87
2022/11/26 02:38:18;;;;;;;7.22;2.33;;;6.30;99.90;;;;;;5013059;28;20529;-87
2022/11/26 02:40:43;;;;;;;11.60;2.60;;;6.30;99.90;;;;;;5009620;28;20078;-88
2022/11/26 02:43:15;;;;;;;12.03;3.77;;;6.30;99.90;;;;;;5008969;28;20078;-87
2022/11/26 02:45:46;;;;;;;10.10;2.10;;;6.30;99.90;;;;;;4997146;28;20513;-88
2022/11/26 02:48:18;;;;;;;11.75;3.00;;;6.30;99.90;;;;;;5004673;28;20034;-87
2022/11/26 02:51:02;;;;;;;10.77;2.65;;;6.30;99.90;;;;;;5009715;28;20045;-87
2022/11/26 02:53:31;;;;;;;6.32;2.30;;;6.20;99.90;;;;;;4997814;28;20065;-87
2022/11/26 02:56:05;;;;;;;8.45;2.05;;;6.20;99.90;;;;;;5013633;28;20095;-88
2022/11/26 02:58:33;;;;;;;11.55;2.97;;;6.30;99.90;;;;;;5008149;28;20042;-87
2022/11/26 03:01:02;;;;;;;11.25;2.50;;;6.20;99.90;;;;;;5010039;28;20045;-88
2022/11/26 03:03:33;;;;;;;12.15;3.10;;;6.20;99.90;;;;;;5012535;28;20426;-87
2022/11/26 03:06:03;;;;;;;11.75;2.45;;;6.20;99.90;;;;;;5011440;28;20115;-88
2022/11/26 03:08:30;;;;;;;12.63;2.30;;;6.20;99.90;;;;;;5011731;28;20566;-87
2022/11/26 03:10:56;;;;;;;7.40;2.30;;;6.20;99.90;;;;;;5010731;28;20048;-88
2022/11/26 03:13:25;;;;;;;12.67;2.60;;;6.20;99.90;;;;;;5009067;28;20117;-87
2022/11/26 03:15:50;;;;;;;9.00;2.25;;;6.20;99.90;;;;;;5007639;28;20073;-88
2022/11/26 03:18:16;;;;;;;15.70;2.33;;;6.20;99.90;;;;;;5002981;28;20071;-88
2022/11/26 03:20:42;;;;;;;8.93;2.37;;;6.20;99.90;;;;;;4996275;28;20054;-88
2022/11/26 03:23:08;;;;;;;6.20;2.63;;;6.20;99.90;;;;;;5015401;28;20077;-87
2022/11/26 03:25:34;;;;;;;10.82;2.95;;;6.20;99.90;;;;;;5013407;28;20271;-87
2022/11/26 03:27:59;;;;;;;10.47;2.67;;;6.20;99.90;;;;;;5015581;28;20056;-87
2022/11/26 03:30:25;;;;;;;10.50;2.90;;;6.20;99.90;;;;;;5009242;28;20354;-88
2022/11/26 03:32:54;;;;;;;10.07;2.50;;;6.20;99.90;;;;;;4989314;28;20135;-87
2022/11/26 03:35:23;;;;;;;7.80;2.15;;;6.20;99.90;;;;;;4996788;28;20049;-87
2022/11/26 03:37:52;;;;;;;7.57;2.40;;;6.20;99.90;;;;;;5012921;28;20410;-87
2022/11/26 03:40:18;;;;;;;9.05;2.58;;;6.20;99.90;;;;;;5011162;28;20050;-87
2022/11/26 03:42:44;;;;;;;12.60;2.90;;;6.20;99.90;;;;;;4996486;28;20129;-87
2022/11/26 03:45:12;;;;;;;9.30;2.20;;;6.20;99.90;;;;;;5014142;28;20033;-87
2022/11/26 03:47:41;;;;;;;16.77;2.83;;;6.20;99.90;;;;;;5002986;28;20050;-87
2022/11/26 03:50:07;;;;;;;13.73;3.13;;;6.20;99.90;;;;;;5019079;28;20093;-87
2022/11/26 03:52:33;;;;;;;8.60;2.88;;;6.10;99.90;;;;;;5014927;28;20105;-87
2022/11/26 03:54:59;;;;;;;10.27;2.60;;;6.10;99.90;;;;;;5011265;28;20077;-87
2022/11/26 03:57:25;;;;;;;10.87;3.00;;;6.10;99.90;;;;;;5009904;28;20949;-87
2022/11/26 03:59:50;;;;;;;9.00;2.37;;;6.10;99.90;;;;;;5009003;28;20044;-87
2022/11/26 04:02:16;;;;;;;9.70;2.03;;;6.10;99.90;;;;;;5008592;28;20826;-87
2022/11/26 04:04:42;;;;;;;6.90;2.70;;;6.10;99.90;;;;;;5012093;28;20077;-87
2022/11/26 04:07:07;;;;;;;5.97;2.33;;;6.10;99.90;;;;;;5009559;28;20403;-88
2022/11/26 04:09:33;;;;;;;8.90;2.50;;;6.10;99.90;;;;;;5012692;28;20545;-88
2022/11/26 04:11:59;;;;;;;12.03;3.17;;;6.10;99.90;;;;;;4995360;28;20049;-88
2022/11/26 04:14:24;;;;;;;7.50;2.23;;;6.10;99.90;;;;;;5012312;28;20034;-88
2022/11/26 04:16:50;;;;;;;6.53;2.23;;;6.10;99.90;;;;;;5010935;28;20073;-88
2022/11/26 04:19:16;;;;;;;9.87;2.90;;;6.10;99.90;;;;;;5012410;28;20072;-87
2022/11/26 04:21:41;;;;;;;10.70;3.13;;;6.10;99.90;;;;;;5003913;28;20081;-87
2022/11/26 04:24:07;;;;;;;7.07;2.97;;;6.10;99.90;;;;;;5009825;28;20038;-88
2022/11/26 04:26:33;;;;;;;9.13;3.27;;;6.10;99.90;;;;;;5010985;28;20042;-88
2022/11/26 04:28:59;;;;;;;11.27;3.10;;;6.10;99.90;;;;;;4994819;28;20335;-87
2022/11/26 04:31:25;;;;;;;12.23;2.90;;;6.00;99.90;;;;;;5009269;28;20496;-88
2022/11/26 04:33:51;;;;;;;9.53;3.23;;;6.00;99.90;;;;;;5011342;28;20399;-88
2022/11/26 04:36:16;;;;;;;9.43;3.63;;;6.00;99.90;;;;;;5011106;28;20065;-87
2022/11/26 04:38:42;;;;;;;7.80;2.30;;;6.00;99.90;;;;;;5016067;28;20058;-87
2022/11/26 04:41:11;;;;;;;10.00;3.30;;;6.00;99.90;;;;;;4993000;28;20127;-87
2022/11/26 04:43:36;;;;;;;10.75;2.67;;;6.00;99.90;;;;;;5008587;28;20526;-88
2022/11/26 04:46:02;;;;;;;10.77;2.97;;;6.00;99.90;;;;;;4995337;28;20045;-88
2022/11/26 04:48:28;;;;;;;8.13;3.07;;;6.00;99.90;;;;;;5011183;28;20538;-87
2022/11/26 04:50:53;;;;;;;13.57;3.43;;;5.90;99.90;;;;;;5011612;28;20036;-87
2022/11/26 04:53:25;;;;;;;12.15;2.97;;;6.00;99.90;;;;;;5012311;28;20045;-88
2022/11/26 04:55:51;;;;;;;13.93;3.58;;;6.00;99.90;;;;;;5003525;28;20046;-87
2022/11/26 04:58:18;;;;;;;11.27;3.50;;;6.00;99.90;;;;;;5011989;28;20041;-88
2022/11/26 05:00:45;;;;;;;11.80;3.30;;;6.00;99.90;;;;;;4994644;28;20100;-88
2022/11/26 05:03:11;;;;;;;12.13;3.47;;;5.90;99.90;;;;;;5008255;28;20048;-88
2022/11/26 05:05:36;;;;;;;10.10;2.88;;;5.90;99.90;;;;;;5009592;28;20052;-87
2022/11/26 05:08:02;;;;;;;7.90;4.03;;;5.90;99.90;;;;;;5005777;28;20101;-87
2022/11/26 05:10:28;;;;;;;6.60;3.13;;;5.90;99.90;;;;;;5013317;28;20038;-87
2022/11/26 05:12:54;;;;;;;12.60;3.80;;;5.90;99.90;;;;;;5011389;28;20038;-87
2022/11/26 05:15:26;;;;;;;6.27;3.00;;;5.90;99.90;;;;;;4993589;28;20072;-88
2022/11/26 05:17:51;;;;;;;13.32;3.00;;;5.90;99.90;;;;;;5005976;28;20049;-88
2022/11/26 05:20:17;;;;;;;9.63;2.67;;;5.90;99.90;;;;;;5011155;28;20061;-87
2022/11/26 05:22:43;;;;;;;9.73;3.97;;;5.90;99.90;;;;;;5008024;28;20128;-88
2022/11/26 05:25:11;;;;;;;13.30;3.43;;;5.80;99.90;;;;;;5010518;28;20258;-87
2022/11/26 05:27:37;;;;;;;7.18;3.20;;;5.90;99.90;;;;;;4994771;28;20069;-87
2022/11/26 05:30:04;;;;;;;8.23;3.17;;;5.90;99.90;;;;;;5012411;28;20038;-88
2022/11/26 05:32:29;;;;;;;6.43;2.67;;;5.80;99.90;;;;;;4993337;28;20057;-88
2022/11/26 05:34:55;;;;;;;12.80;3.37;;;5.80;99.90;;;;;;4987793;28;20145;-87
2022/11/26 05:37:21;;;;;;;9.90;2.87;;;5.80;99.90;;;;;;5013148;28;20076;-87
2022/11/26 05:39:46;;;;;;;11.83;3.47;;;5.80;99.90;;;;;;5012053;28;20041;-87
2022/11/26 05:42:12;;;;;;;8.10;4.47;;;5.80;99.90;;;;;;5009906;28;20171;-87
2022/11/26 05:44:37;;;;;;;10.40;3.47;;;5.80;99.90;;;;;;5010336;28;20534;-87
2022/11/26 05:47:03;;;;;;;11.13;3.27;;;5.80;99.90;;;;;;5006950;28;20040;-87
2022/11/26 05:49:29;;;;;;;6.10;3.07;;;5.80;99.90;;;;;;5008029;28;20029;-89
2022/11/26 05:51:54;;;;;;;8.03;3.37;;;5.70;99.90;;;;;;5007659;28;20283;-87
2022/11/26 05:54:23;;;;;;;10.07;3.27;;;5.80;99.90;;;;;;5012551;28;20036;-87
2022/11/26 05:56:52;;;;;;;10.02;3.80;;;5.70;99.90;;;;;;4999790;28;20053;-87
2022/11/26 05:59:18;;;;;;;8.35;3.22;;;5.70;99.90;;;;;;4993370;28;20471;-87
2022/11/26 06:01:43;;;;;;;11.67;3.03;;;5.70;99.90;;;;;;4994629;28;20092;-88
2022/11/26 06:04:12;;;;;;;7.10;3.77;;;5.70;99.90;;;;;;5011182;28;20093;-87
2022/11/26 06:06:37;;;;;;;11.13;3.40;;;5.60;99.90;;;;;;5007390;28;20038;-88
2022/11/26 06:09:03;;;;;;;12.33;3.17;;;5.70;99.90;;;;;;5001718;28;20034;-87
2022/11/26 06:11:29;;;;;;;6.80;2.60;;;5.70;99.90;;;;;;5012043;28;20034;-87
2022/11/26 06:13:54;;;;;;;7.43;3.40;;;5.70;99.90;;;;;;5010244;28;20107;-87
2022/11/26 06:16:23;;;;;;;7.97;2.97;;;5.70;99.90;;;;;;5006636;28;20050;-87
2022/11/26 06:18:48;;;;;;;16.58;3.47;;;5.70;99.90;;;;;;5006536;28;20077;-87
2022/11/26 06:21:14;;;;;;;9.60;3.03;;;5.70;99.90;;;;;;5009481;28;20030;-87
2022/11/26 06:23:39;;;;;;;10.80;3.63;;;5.60;99.90;;;;;;5012270;28;20514;-87
2022/11/26 06:26:11;;;;;;;8.77;3.30;;;5.70;99.90;;;;;;4991603;28;20065;-87
2022/11/26 06:28:37;;;;;;;13.70;3.83;;;5.70;99.90;;;;;;4992462;28;20042;-87
2022/11/26 06:31:03;;;;;;;;;;;5.70;99.90;;;;;;4996518;28;20038;-87
2022/11/26 06:33:29;;;;;;;8.90;2.88;;;5.60;99.90;;;;;;5011674;28;20364;-88
2022/11/26 06:36:02;;;;;;;8.45;3.10;;;5.60;99.90;;;;;;5003743;23;20032;-68
2022/11/26 06:38:28;;;;;;;13.98;3.33;;;5.70;99.90;;;;;;4988829;28;20046;-68
2022/11/26 06:41:02;;;;;;;9.30;3.27;;;5.60;99.90;;;;;;4986839;28;20046;-68
2022/11/26 06:43:28;;;;;;;11.15;3.75;;;5.70;99.90;;;;;;4988744;28;20288;-68
2022/11/26 06:45:59;;;;;;;11.90;3.20;;;5.60;99.90;;;;;;5006988;28;20092;-68
2022/11/26 06:48:24;;;;;;;10.55;3.72;;;5.70;99.90;;;;;;5006281;28;20460;-67
2022/11/26 06:50:51;;;;;;;6.13;3.20;;;5.60;99.90;;;;;;5000305;28;20128;-67
2022/11/26 06:53:17;;;;;;;;;;;5.60;99.90;;;;;;5011167;28;20127;-67
2022/11/26 06:55:42;;;;;;;6.97;3.03;;;5.60;99.90;;;;;;4997981;28;19964;-67
2022/11/26 06:58:08;;;;;;;12.47;3.93;;;5.70;99.90;;;;;;5007309;28;20427;-67
2022/11/26 07:00:34;;;;;;;15.98;3.88;;;5.60;99.90;;;;;;4990518;28;20050;-67
2022/11/26 07:02:59;;;;;;;8.43;3.70;;;5.60;99.90;;;;;;5000780;28;20045;-67
2022/11/26 07:05:25;;;;;;;13.37;3.60;;;5.60;99.90;;;;;;4994999;28;20511;-69
2022/11/26 07:07:51;;;;;;;19.35;3.95;;;5.60;99.90;;;;;;5008731;28;20385;-68
2022/11/26 07:10:17;;;;;;;9.37;3.73;;;5.60;99.90;;;;;;5006856;28;20125;-67
2022/11/26 07:12:42;;;;;;;11.97;3.83;;;5.70;99.90;;;;;;4998380;28;20046;-67
2022/11/26 07:15:11;;;;;;;11.43;3.60;;;5.70;99.90;;;;;;5001809;28;20045;-67
2022/11/26 07:17:37;;;;;;;17.40;4.28;;;5.70;99.90;;;;;;5007077;28;20048;-68
2022/11/26 07:20:03;;;;;;;9.47;3.50;;;5.60;99.90;;;;;;5001090;28;20488;-68
2022/11/26 07:22:29;;;;;;;10.90;3.75;;;5.60;99.90;;;;;;5004173;28;20507;-67
2022/11/26 07:24:55;;;;;;;8.40;3.57;;;5.70;99.90;;;;;;4995808;28;20038;-67
2022/11/26 07:27:20;;;;;;;9.37;4.07;;;5.70;99.90;;;;;;5003240;28;20141;-68
2022/11/26 07:29:46;;;;;;;9.73;3.50;;;5.70;99.90;;;;;;5002509;28;20090;-68
2022/11/26 07:32:11;;;;;;;11.03;3.73;;;5.70;99.90;;;;;;4996062;28;20041;-68
2022/11/26 07:34:37;;;;;;;11.87;3.83;;;5.70;99.90;;;;;;5006844;28;20038;-68
2022/11/26 07:37:03;;;;;;;17.53;3.93;;;5.70;99.90;;;;;;4997964;28;20034;-68
2022/11/26 07:39:29;;;;;;;6.37;3.13;;;5.70;99.90;;;;;;4989005;28;20424;-68
2022/11/26 07:41:54;;;;;;;9.13;3.63;;;5.70;99.90;;;;;;5000446;28;20109;-68
2022/11/26 07:44:20;;;;;;;13.77;4.40;;;5.70;99.90;;;;;;5003941;28;20120;-68
2022/11/26 07:46:46;;;;;;;10.83;4.13;;;5.80;99.90;;;;;;4999771;28;20495;-68
2022/11/26 07:49:11;;;;;;;11.30;3.77;;;5.80;99.90;;;;;;5010109;28;20034;-68
2022/11/26 07:51:38;;;;;;;11.00;3.67;;;5.80;99.90;;;;;;5004848;28;20080;-67
2022/11/26 07:54:08;;;;;;;8.35;3.35;;;5.80;99.90;;;;;;5009201;28;20054;-68
2022/11/26 07:56:33;;;;;;;12.00;3.88;;;5.80;99.90;;;;;;5001860;28;20054;-68
2022/11/26 07:59:00;;;;;;;11.10;4.30;;;5.90;99.90;;;;;;4997172;28;20547;-68
2022/11/26 08:01:28;;;;;;;8.15;3.50;;;5.90;99.90;;;;;;5002414;28;20326;-68
2022/11/26 08:03:55;;;;;;;10.13;3.75;;;5.90;99.90;;;;;;5000281;28;20519;-68
2022/11/26 08:06:23;;;;;;;13.50;4.28;;;5.90;99.90;;;;;;5009494;28;20038;-68
2022/11/26 08:08:50;;;;;;;11.77;4.88;;;6.00;99.90;;;;;;5002514;28;20175;-68
2022/11/26 08:11:24;;;;;;;16.17;4.18;;;6.00;99.90;;;;;;5009645;28;20044;-67
2022/11/26 08:13:55;;;;;;;8.48;3.60;;;6.00;99.90;;;;;;4999990;28;20155;-68
2022/11/26 08:16:21;;;;;;;10.80;4.30;;;6.00;99.90;;;;;;5001383;28;20049;-68
2022/11/26 08:18:46;;;;;;;12.77;3.97;;;6.10;99.90;;;;;;5010225;28;20041;-68
2022/11/26 08:21:12;;;;;;;7.87;3.77;;;6.10;99.90;;;;;;5007220;28;20046;-67
2022/11/26 08:23:38;;;;;;;12.47;4.50;;;6.10;99.90;;;;;;4996401;28;20038;-68
2022/11/26 08:26:11;;;;;;;9.00;4.00;;;6.10;99.90;;;;;;4999363;28;20424;-67
2022/11/26 08:28:37;;;;;;;12.00;3.83;;;6.20;99.90;;;;;;4996174;28;20042;-67
2022/11/26 08:31:05;;;;;;;11.73;4.93;;;6.20;99.90;;;;;;5003725;28;20269;-67
2022/11/26 08:33:31;;;;;;;10.05;4.47;;;6.20;99.90;;;;;;5003802;28;20044;-67
2022/11/26 08:35:56;;;;;;;9.87;4.23;;;6.30;99.90;;;;;;5006056;28;20037;-67
2022/11/26 08:38:22;;;;;;;11.30;4.90;;;6.20;99.90;;;;;;5012515;28;20041;-67
2022/11/26 08:40:48;;;;;;;16.00;4.10;;;6.30;99.90;;;;;;5004126;28;20522;-68
2022/11/26 08:43:14;;;;;;;11.13;4.07;;;6.30;99.90;;;;;;4999520;28;20050;-67
2022/11/26 08:45:39;;;;;;;14.33;4.73;;;6.30;99.90;;;;;;4996632;28;20530;-67
2022/11/26 08:48:05;;;;;;;10.07;4.70;;;6.40;99.90;;;;;;5001307;28;20048;-67
2022/11/26 08:50:32;;;;;;;12.53;4.43;;;6.40;99.90;;;;;;5002685;28;20049;-67
2022/11/26 08:52:58;;;;;;;19.17;4.85;;;6.40;99.90;;;;;;4996127;28;20037;-68
2022/11/26 08:55:27;;;;;;;10.18;4.22;;;6.40;99.90;;;;;;4999157;28;20381;-68
2022/11/26 08:57:53;;;;;;;13.43;4.47;;;6.50;99.90;;;;;;4995729;28;20224;-68
2022/11/26 09:00:19;;;;;;;12.47;4.27;;;6.50;99.90;;;;;;5005151;28;20527;-68
2022/11/26 09:02:44;;;;;;;13.73;4.15;;;6.60;99.90;;;;;;5003834;28;20212;-68
2022/11/26 09:05:10;;;;;;;9.73;3.77;;;6.60;99.90;;;;;;5001708;28;20119;-68
2022/11/26 09:07:36;;;;;;;12.87;4.30;;;6.60;99.90;;;;;;5006578;28;20380;-68
2022/11/26 09:10:02;;;;;;;12.75;4.28;;;6.70;99.90;;;;;;5005994;28;20030;-67
2022/11/26 09:12:27;;;;;;;12.13;4.37;;;6.70;99.90;;;;;;4999742;28;20124;-67
2022/11/26 09:14:53;;;;;;;12.53;4.03;;;6.80;99.90;;;;;;5001414;28;20083;-67
2022/11/26 09:17:18;;;;;;;11.73;4.00;;;6.90;99.90;;;;;;5003026;28;20404;-67
2022/11/26 09:19:44;;;;;;;16.07;4.83;;;6.90;99.90;;;;;;5005683;28;20049;-67
2022/11/26 09:22:10;;;;;;;10.73;4.33;;;6.90;99.90;;;;;;4998724;28;20070;-67
2022/11/26 09:24:35;;;;;;;14.00;4.50;;;6.90;99.90;;;;;;5001876;28;20037;-67
2022/11/26 09:27:01;;;;;;;13.90;3.83;;;7.00;99.90;;;;;;4999408;28;20057;-67
2022/11/26 09:29:27;;;;;;;12.20;4.90;;;7.10;99.90;;;;;;5005228;28;20496;-67
2022/11/26 09:31:52;;;;;;;19.17;4.50;;;7.10;99.90;;;;;;4997332;28;20042;-69
2022/11/26 09:34:18;;;;;;;17.87;4.47;;;7.20;99.90;;;;;;5002178;28;20029;-67
2022/11/26 09:36:43;;;;;;;12.13;4.77;;;7.20;99.90;;;;;;4997697;28;20047;-67
2022/11/26 09:39:12;;;;;;;18.93;4.53;;;7.30;99.90;;;;;;5007633;28;20033;-67
2022/11/26 09:41:55;;;;;;;10.35;4.75;;;7.40;99.90;;;;;;5001203;28;20045;-68
2022/11/26 09:44:32;;;;;;;11.20;4.22;;;7.40;99.90;;;;;;5001217;28;20038;-68
2022/11/26 09:47:08;;;;;;;15.02;4.90;;;7.50;99.90;;;;;;5002158;28;20122;-68
2022/11/26 09:49:54;;;;;;;17.15;4.70;;;7.50;99.90;;;;;;4998668;28;20208;-68
2022/11/26 09:52:22;;;;;;;19.40;4.97;;;7.50;99.90;;;;;;5000938;28;20037;-68
2022/11/26 09:54:53;;;;;;;13.30;4.22;;;7.50;99.90;;;;;;5009714;28;20049;-68
2022/11/26 09:57:27;;;;;;;19.45;4.55;;;7.60;99.90;;;;;;4999324;28;20092;-68
2022/11/26 09:59:54;;;;;;;21.90;4.95;;;7.50;99.90;;;;;;4996536;28;20100;-68
2022/11/26 10:02:21;;;;;;;18.95;5.75;;;7.60;99.90;;;;;;5000534;28;20535;-68
2022/11/26 10:04:47;;;;;;;14.82;4.85;;;7.60;99.90;;;;;;4996000;28;20042;-69
2022/11/26 10:07:40;;;;;;;14.77;4.70;;;7.60;99.90;;;;;;4995486;28;20461;-68
2022/11/26 10:10:09;;;;;;;21.67;5.75;;;7.60;99.90;;;;;;5002843;28;20034;-68
2022/11/26 10:12:59;;;;;;;14.27;4.55;;;7.70;99.90;;;;;;5003610;28;20060;-68
2022/11/26 10:15:44;;;;;;;17.33;4.85;;;7.70;99.90;;;;;;4994078;28;20034;-68
2022/11/26 10:18:36;;;;;;;13.75;4.50;;;7.80;99.90;;;;;;4998102;28;20496;-66
2022/11/26 10:21:27;;;;;;;11.38;4.60;;;7.80;99.90;;;;;;4994123;28;20046;-67
2022/11/26 10:23:58;;;;;;;14.75;4.85;;;7.80;99.90;;;;;;4989218;28;20539;-67
2022/11/26 10:26:38;;;;;;;12.77;4.45;;;7.90;99.90;;;;;;5003962;28;20053;-66
2022/11/26 10:29:25;;;;;;;17.70;4.75;;;7.90;99.90;;;;;;5005533;28;20072;-66
2022/11/26 10:31:59;;;;;;;20.03;4.93;;;7.90;99.90;;;;;;5000901;28;20033;-67
2022/11/26 10:34:36;;;;;;;15.45;4.78;;;8.00;99.90;;;;;;5028312;23;20294;-88
2022/11/26 10:37:02;;;;;;;16.88;4.90;;;8.00;99.90;;;;;;5014567;28;20041;-87
2022/11/26 10:39:31;;;;;;;22.75;5.97;;;8.10;99.90;;;;;;5014995;28;20063;-87
2022/11/26 10:42:02;;;;;;;18.23;6.03;;;8.10;99.90;;;;;;5012470;28;20134;-87
2022/11/26 10:44:34;;;;;;;15.30;5.53;;;8.10;99.90;;;;;;5010343;28;20037;-86
2022/11/26 10:47:21;;;;;;;16.67;5.20;;;8.10;99.90;;;;;;5012909;28;20037;-87
2022/11/26 10:49:48;;;;;;;16.05;5.40;;;8.20;99.90;;;;;;5030360;28;20038;-88
2022/11/26 10:52:23;;;;;;;14.57;5.43;;;8.20;99.90;;;;;;5031375;28;20041;-87
2022/11/26 10:55:26;;;;;;;13.88;5.20;;;8.30;99.90;;;;;;5028065;28;20046;-88
2022/11/26 10:58:13;;;;;;;15.68;4.82;;;8.30;99.90;;;;;;5029789;28;20073;-87
2022/11/26 11:00:54;;;;;;;17.30;6.05;;;8.30;99.90;;;;;;5011333;28;20055;-88
2022/11/26 11:03:25;;;;;;;18.02;5.80;;;8.30;99.90;;;;;;5028386;28;20608;-88
2022/11/26 11:06:18;;;;;;;16.58;4.93;;;8.40;99.90;;;;;;5030529;28;20041;-87
2022/11/26 11:08:48;;;;;;;16.10;5.57;;;8.40;99.90;;;;;;5031098;28;20041;-87
2022/11/26 11:11:18;;;;;;;17.25;6.07;;;8.40;99.90;;;;;;5027404;28;20057;-88
2022/11/26 11:13:48;;;;;;;19.55;5.82;;;8.40;99.90;;;;;;5033993;28;20053;-87
2022/11/26 11:16:31;;;;;;;14.80;6.00;;;8.50;99.90;;;;;;5014402;28;20079;-87
2022/11/26 11:19:03;;;;;;;21.63;5.25;;;8.50;99.90;;;;;;5029863;28;20044;-88
2022/11/26 11:21:33;;;;;;;15.63;5.28;;;8.50;99.90;;;;;;5015723;28;20116;-88
2022/11/26 11:24:34;;;;;;;17.35;5.40;;;8.50;99.90;;;;;;5015615;28;20048;-88
2022/11/26 11:27:00;;;;;;;17.35;5.20;;;8.60;99.90;;;;;;5016695;28;20121;-87
2022/11/26 11:29:28;;;;;;;12.03;5.33;;;8.60;99.90;;;;;;5032691;28;20089;-87
2022/11/26 11:32:03;;;;;;;15.90;5.68;;;8.70;99.90;;;;;;5028138;28;20029;-87
2022/11/26 11:34:31;;;;;;;16.75;5.13;;;8.70;99.90;;;;;;5032698;28;20113;-88
2022/11/26 11:37:01;;;;;;;16.13;5.80;;;8.70;99.90;;;;;;5032167;28;20109;-88
2022/11/26 11:39:28;;;;;;;18.55;5.53;;;8.80;99.90;;;;;;5030369;28;20033;-88
2022/11/26 11:41:55;;;;;;;16.15;5.68;;;8.80;99.90;;;;;;5013458;28;20040;-88
2022/11/26 11:44:38;;;;;;;15.63;5.43;;;8.80;99.90;;;;;;5031922;28;20057;-88
2022/11/26 11:47:31;;;;;;;15.45;5.85;;;8.90;99.90;;;;;;5013195;28;20494;-88
2022/11/26 11:50:25;;;;;;;13.48;4.90;;;8.90;99.90;;;;;;5034037;28;20049;-88
2022/11/26 11:53:05;;;;;;;15.95;5.40;;;8.90;99.90;;;;;;5015764;28;20044;-88
2022/11/26 11:55:37;;;;;;;19.13;4.72;;;9.00;99.90;;;;;;5028404;28;20088;-90
2022/11/26 11:58:14;;;;;;;21.95;6.50;;;9.00;99.90;;;;;;5034425;28;20072;-88
2022/11/26 12:00:49;;;;;;;17.48;5.00;;;9.00;99.90;;;;;;5025440;28;20077;-89
2022/11/26 12:03:26;;;;;;;10.50;4.50;;;9.00;99.90;;;;;;5012347;28;20045;-89
2022/11/26 12:06:16;;;;;;;21.13;5.88;;;9.00;99.90;;;;;;5033027;28;20042;-88
2022/11/26 12:09:05;;;;;;;19.83;5.22;;;9.00;99.90;;;;;;5031269;28;20561;-88
2022/11/26 12:11:48;;;;;;;15.52;5.80;;;9.10;99.90;;;;;;5035600;28;20088;-88
2022/11/26 12:14:43;;;;;;;16.55;5.60;;;9.10;99.90;;;;;;5037564;28;20517;-88
2022/11/26 12:17:46;;;;;;;12.98;5.63;;;9.10;99.90;;;;;;5005851;28;20502;-88
2022/11/26 12:20:21;;;;;;;16.83;4.90;;;9.20;99.90;;;;;;5026592;28;20041;-88
2022/11/26 12:22:56;;;;;;;18.45;6.88;;;9.30;99.90;;;;;;5025780;28;20042;-88
2022/11/26 12:25:36;;;;;;;19.38;4.90;;;9.40;99.90;;;;;;5031476;28;20124;-88
2022/11/26 12:28:12;;;;;;;13.05;4.95;;;9.60;99.90;;;;;;5032059;28;20040;-88
2022/11/26 12:31:00;;;;;;;14.88;5.60;;;9.70;99.90;;;;;;5013559;28;20048;-88
2022/11/26 12:33:42;;;;;;;14.63;5.25;;;9.70;99.90;;;;;;5029164;28;20120;-88
2022/11/26 12:36:21;;;;;;;10.00;4.35;;;9.70;99.90;;;;;;5031351;28;20100;-89
2022/11/26 12:39:02;;;;;;;14.38;4.72;;;9.90;99.90;;;;;;5014655;28;20229;-88
2022/11/26 12:41:43;;;;;;;14.00;4.82;;;9.90;99.90;;;;;;5030097;28;20033;-88
2022/11/26 12:44:34;;;;;;;14.77;5.22;;;9.90;99.90;;;;;;5031555;28;20041;-89
2022/11/26 12:47:22;;;;;;;22.38;5.45;;;9.90;99.90;;;;;;5028629;28;20040;-89
2022/11/26 12:50:09;;;;;;;15.25;5.00;;;9.90;99.90;;;;;;5032274;28;20121;-89
2022/11/26 12:53:06;;;;;;;14.18;4.45;;;9.90;99.90;;;;;;5029053;28;20044;-89
2022/11/26 12:55:42;;;;;;;17.65;5.35;;;9.90;99.90;;;;;;5009567;28;20042;-89
2022/11/26 12:58:18;;;;;;;12.77;4.82;;;9.90;99.90;;;;;;5030151;28;20041;-89
2022/11/26 13:00:45;;;;;;;17.15;5.68;;;9.80;99.90;;;;;;5030602;28;20456;-89
2022/11/26 13:03:17;;;;;;;18.92;5.10;;;9.80;99.90;;;;;;5012750;28;20086;-89
2022/11/26 13:06:01;;;;;;;15.23;5.20;;;9.90;99.90;;;;;;5006629;28;20101;-89
2022/11/26 13:08:56;;;;;;;11.55;5.18;;;9.80;99.90;;;;;;5030753;28;20121;-89